sensor_id;sensor_type;location;lat;lon;timestamp;pressure;altitude;pressure_sealevel;temperature;humidity
47761;BME280;33524;55.434;38.520;2024-03-22T00:00:01;100753.25;;;-2.06;76.85
47761;BME280;33524;55.434;38.520;2024-03-22T00:02:38;100748.38;;;-2.28;77.49
47761;BME280;33524;55.434;38.520;2024-03-22T00:05:05;100755.00;;;-2.08;77.01
47761;BME280;33524;55.434;38.520;2024-03-22T00:07:32;100749.78;;;-2.05;76.70
47761;BME280;33524;55.434;38.520;2024-03-22T00:09:59;100747.16;;;-2.00;76.58
47761;BME280;33524;55.434;38.520;2024-03-22T00:12:26;100746.34;;;-2.04;76.65
47761;BME280;33524;55.434;38.520;2024-03-22T00:14:53;100747.16;;;-2.02;76.74
47761;BME280;33524;55.434;38.520;2024-03-22T00:17:21;100739.56;;;-2.11;77.00
47761;BME280;33524;55.434;38.520;2024-03-22T00:19:48;100737.88;;;-2.12;77.00
47761;BME280;33524;55.434;38.520;2024-03-22T00:22:15;100737.19;;;-2.25;77.41
47761;BME280;33524;55.434;38.520;2024-03-22T00:24:42;100732.81;;;-2.18;77.28
47761;BME280;33524;55.434;38.520;2024-03-22T00:27:09;100738.03;;;-2.23;77.40
47761;BME280;33524;55.434;38.520;2024-03-22T00:29:38;100742.47;;;-2.34;77.66
47761;BME280;33524;55.434;38.520;2024-03-22T00:32:05;100733.75;;;-2.26;77.68
47761;BME280;33524;55.434;38.520;2024-03-22T00:34:34;100734.63;;;-2.27;77.20
47761;BME280;33524;55.434;38.520;2024-03-22T00:37:01;100736.41;;;-2.32;77.56
47761;BME280;33524;55.434;38.520;2024-03-22T00:39:28;100734.88;;;-2.45;77.91
47761;BME280;33524;55.434;38.520;2024-03-22T00:41:55;100744.47;;;-2.56;78.55
47761;BME280;33524;55.434;38.520;2024-03-22T00:44:22;100749.91;;;-2.79;79.65
47761;BME280;33524;55.434;38.520;2024-03-22T00:46:49;100730.97;;;-2.75;79.64
47761;BME280;33524;55.434;38.520;2024-03-22T00:49:16;100741.94;;;-2.59;78.98
47761;BME280;33524;55.434;38.520;2024-03-22T00:51:43;100741.13;;;-2.63;78.89
47761;BME280;33524;55.434;38.520;2024-03-22T00:54:11;100741.19;;;-2.68;78.82
47761;BME280;33524;55.434;38.520;2024-03-22T00:56:38;100732.47;;;-2.57;78.52
47761;BME280;33524;55.434;38.520;2024-03-22T00:59:05;100729.81;;;-2.51;78.38
47761;BME280;33524;55.434;38.520;2024-03-22T01:01:33;100731.78;;;-2.69;78.68
47761;BME280;33524;55.434;38.520;2024-03-22T01:04:00;100731.56;;;-2.55;78.61
47761;BME280;33524;55.434;38.520;2024-03-22T01:06:27;100720.56;;;-2.66;78.78
47761;BME280;33524;55.434;38.520;2024-03-22T01:08:54;100724.78;;;-2.60;79.04
47761;BME280;33524;55.434;38.520;2024-03-22T01:11:22;100717.84;;;-2.55;78.64
47761;BME280;33524;55.434;38.520;2024-03-22T01:13:49;100720.47;;;-2.58;78.78
47761;BME280;33524;55.434;38.520;2024-03-22T01:16:16;100714.44;;;-2.57;78.72
47761;BME280;33524;55.434;38.520;2024-03-22T01:18:43;100705.13;;;-2.66;79.00
47761;BME280;33524;55.434;38.520;2024-03-22T01:21:10;100711.94;;;-2.64;78.84
47761;BME280;33524;55.434;38.520;2024-03-22T01:23:37;100711.19;;;-2.70;79.07
47761;BME280;33524;55.434;38.520;2024-03-22T01:26:04;100707.94;;;-2.85;79.59
47761;BME280;33524;55.434;38.520;2024-03-22T01:28:31;100710.53;;;-2.86;79.62
47761;BME280;33524;55.434;38.520;2024-03-22T01:30:58;100711.66;;;-3.10;80.17
47761;BME280;33524;55.434;38.520;2024-03-22T01:33:25;100691.88;;;-3.07;80.62
47761;BME280;33524;55.434;38.520;2024-03-22T01:35:52;100690.84;;;-2.90;80.01
47761;BME280;33524;55.434;38.520;2024-03-22T01:38:19;100692.56;;;-2.92;80.06
47761;BME280;33524;55.434;38.520;2024-03-22T01:40:46;100691.75;;;-2.96;80.36
47761;BME280;33524;55.434;38.520;2024-03-22T01:43:13;100695.28;;;-3.03;80.07
47761;BME280;33524;55.434;38.520;2024-03-22T01:45:40;100693.09;;;-3.38;81.49
47761;BME280;33524;55.434;38.520;2024-03-22T01:48:08;100694.97;;;-3.53;82.24
47761;BME280;33524;55.434;38.520;2024-03-22T01:50:34;100697.41;;;-3.42;82.02
47761;BME280;33524;55.434;38.520;2024-03-22T01:53:01;100678.00;;;-3.72;80.29
47761;BME280;33524;55.434;38.520;2024-03-22T01:55:28;100699.34;;;-3.64;82.83
47761;BME280;33524;55.434;38.520;2024-03-22T01:57:56;100694.91;;;-3.45;82.17
47761;BME280;33524;55.434;38.520;2024-03-22T02:00:23;100683.47;;;-3.22;81.19
47761;BME280;33524;55.434;38.520;2024-03-22T02:02:51;100692.94;;;-3.23;80.77
47761;BME280;33524;55.434;38.520;2024-03-22T02:05:19;100695.81;;;-3.54;81.66
47761;BME280;33524;55.434;38.520;2024-03-22T02:07:47;100668.59;;;-3.76;82.51
47761;BME280;33524;55.434;38.520;2024-03-22T02:10:15;100689.69;;;-3.39;81.66
47761;BME280;33524;55.434;38.520;2024-03-22T02:12:44;100681.88;;;-3.31;81.03
47761;BME280;33524;55.434;38.520;2024-03-22T02:15:12;100659.72;;;-3.43;81.05
47761;BME280;33524;55.434;38.520;2024-03-22T02:17:39;100674.09;;;-3.25;80.86
47761;BME280;33524;55.434;38.520;2024-03-22T02:20:06;100667.22;;;-3.25;80.68
47761;BME280;33524;55.434;38.520;2024-03-22T02:22:34;100664.66;;;-3.25;80.68
47761;BME280;33524;55.434;38.520;2024-03-22T02:25:01;100668.16;;;-3.29;80.75
47761;BME280;33524;55.434;38.520;2024-03-22T02:27:29;100659.59;;;-3.31;80.90
47761;BME280;33524;55.434;38.520;2024-03-22T02:29:56;100665.59;;;-3.30;80.81
47761;BME280;33524;55.434;38.520;2024-03-22T02:32:23;100665.59;;;-3.32;80.77
47761;BME280;33524;55.434;38.520;2024-03-22T02:34:49;100669.91;;;-3.34;80.84
47761;BME280;33524;55.434;38.520;2024-03-22T02:37:16;100660.50;;;-3.36;80.97
47761;BME280;33524;55.434;38.520;2024-03-22T02:39:43;100656.28;;;-3.40;81.20
47761;BME280;33524;55.434;38.520;2024-03-22T02:42:10;100655.50;;;-3.49;81.49
47761;BME280;33524;55.434;38.520;2024-03-22T02:44:37;100657.16;;;-3.45;81.31
47761;BME280;33524;55.434;38.520;2024-03-22T02:47:10;100640.09;;;-3.52;81.28
47761;BME280;33524;55.434;38.520;2024-03-22T02:49:38;100650.37;;;-3.52;81.48
47761;BME280;33524;55.434;38.520;2024-03-22T02:52:05;100639.22;;;-3.51;81.40
47761;BME280;33524;55.434;38.520;2024-03-22T02:54:32;100645.34;;;-3.62;81.58
47761;BME280;33524;55.434;38.520;2024-03-22T02:56:59;100646.53;;;-3.94;82.33
47761;BME280;33524;55.434;38.520;2024-03-22T02:59:28;100652.59;;;-4.06;83.63
47761;BME280;33524;55.434;38.520;2024-03-22T03:01:56;100653.44;;;-4.06;83.87
47761;BME280;33524;55.434;38.520;2024-03-22T03:04:23;100654.34;;;-4.08;83.56
47761;BME280;33524;55.434;38.520;2024-03-22T03:06:50;100649.78;;;-3.77;82.62
47761;BME280;33524;55.434;38.520;2024-03-22T03:09:17;100639.50;;;-3.78;82.10
47761;BME280;33524;55.434;38.520;2024-03-22T03:11:44;100648.03;;;-3.72;82.05
47761;BME280;33524;55.434;38.520;2024-03-22T03:14:11;100646.38;;;-3.79;82.03
47761;BME280;33524;55.434;38.520;2024-03-22T03:16:38;100655.78;;;-3.79;82.18
47761;BME280;33524;55.434;38.520;2024-03-22T03:19:05;100646.34;;;-3.77;82.30
47761;BME280;33524;55.434;38.520;2024-03-22T03:21:32;100631.84;;;-3.81;82.00
47761;BME280;33524;55.434;38.520;2024-03-22T03:23:59;100643.69;;;-3.68;81.86
47761;BME280;33524;55.434;38.520;2024-03-22T03:26:26;100639.38;;;-3.66;81.73
47761;BME280;33524;55.434;38.520;2024-03-22T03:28:53;100643.78;;;-3.77;82.18
47761;BME280;33524;55.434;38.520;2024-03-22T03:31:23;100636.84;;;-3.69;81.96
47761;BME280;33524;55.434;38.520;2024-03-22T03:33:50;100633.47;;;-3.74;82.18
47761;BME280;33524;55.434;38.520;2024-03-22T03:36:17;100629.12;;;-3.69;82.15
47761;BME280;33524;55.434;38.520;2024-03-22T03:38:44;100635.12;;;-3.70;82.07
47761;BME280;33524;55.434;38.520;2024-03-22T03:41:11;100623.16;;;-3.71;81.94
47761;BME280;33524;55.434;38.520;2024-03-22T03:43:38;100629.97;;;-3.67;82.00
47761;BME280;33524;55.434;38.520;2024-03-22T03:46:05;100629.91;;;-3.61;81.92
47761;BME280;33524;55.434;38.520;2024-03-22T03:48:32;100624.72;;;-3.58;81.84
47761;BME280;33524;55.434;38.520;2024-03-22T03:50:59;100622.06;;;-3.49;81.56
47761;BME280;33524;55.434;38.520;2024-03-22T03:53:30;100621.22;;;-3.51;81.62
47761;BME280;33524;55.434;38.520;2024-03-22T03:55:57;100624.66;;;-3.50;81.74
47761;BME280;33524;55.434;38.520;2024-03-22T03:58:24;100624.56;;;-3.42;81.71
47761;BME280;33524;55.434;38.520;2024-03-22T04:00:51;100618.53;;;-3.41;81.65
47761;BME280;33524;55.434;38.520;2024-03-22T04:03:18;100615.06;;;-3.36;81.63
47761;BME280;33524;55.434;38.520;2024-03-22T04:05:46;100612.44;;;-3.31;81.63
47761;BME280;33524;55.434;38.520;2024-03-22T04:08:13;100614.13;;;-3.29;81.48
47761;BME280;33524;55.434;38.520;2024-03-22T04:10:40;100617.50;;;-3.25;81.67
47761;BME280;33524;55.434;38.520;2024-03-22T04:13:07;100606.28;;;-3.18;81.74
47761;BME280;33524;55.434;38.520;2024-03-22T04:15:35;100604.41;;;-3.08;81.32
47761;BME280;33524;55.434;38.520;2024-03-22T04:18:03;100605.22;;;-3.05;81.35
47761;BME280;33524;55.434;38.520;2024-03-22T04:20:30;100601.81;;;-3.05;81.67
47761;BME280;33524;55.434;38.520;2024-03-22T04:22:57;100598.25;;;-2.96;81.39
47761;BME280;33524;55.434;38.520;2024-03-22T04:25:24;100600.81;;;-2.93;81.40
47761;BME280;33524;55.434;38.520;2024-03-22T04:27:51;100604.16;;;-2.87;81.44
47761;BME280;33524;55.434;38.520;2024-03-22T04:30:18;100598.00;;;-2.78;81.37
47761;BME280;33524;55.434;38.520;2024-03-22T04:32:48;100602.25;;;-2.75;81.47
47761;BME280;33524;55.434;38.520;2024-03-22T04:35:15;100594.44;;;-2.68;81.32
47761;BME280;33524;55.434;38.520;2024-03-22T04:37:42;100599.44;;;-2.58;81.38
47761;BME280;33524;55.434;38.520;2024-03-22T04:40:10;100599.37;;;-2.54;81.21
47761;BME280;33524;55.434;38.520;2024-03-22T04:42:37;100599.13;;;-2.38;80.50
47761;BME280;33524;55.434;38.520;2024-03-22T04:45:04;100593.91;;;-2.34;80.81
47761;BME280;33524;55.434;38.520;2024-03-22T04:47:32;100592.84;;;-2.22;80.48
47761;BME280;33524;55.434;38.520;2024-03-22T04:49:59;100603.88;;;-2.12;80.32
47761;BME280;33524;55.434;38.520;2024-03-22T04:52:25;100598.47;;;-1.98;80.21
47761;BME280;33524;55.434;38.520;2024-03-22T04:54:53;100598.31;;;-1.91;79.73
47761;BME280;33524;55.434;38.520;2024-03-22T04:57:20;100593.78;;;-1.76;79.24
47761;BME280;33524;55.434;38.520;2024-03-22T04:59:47;100584.97;;;-1.66;78.81
47761;BME280;33524;55.434;38.520;2024-03-22T05:02:14;100598.47;;;-1.53;78.86
47761;BME280;33524;55.434;38.520;2024-03-22T05:04:40;100582.00;;;-1.45;78.68
47761;BME280;33524;55.434;38.520;2024-03-22T05:07:08;100596.22;;;-1.25;78.14
47761;BME280;33524;55.434;38.520;2024-03-22T05:09:35;100587.31;;;-1.12;77.47
47761;BME280;33524;55.434;38.520;2024-03-22T05:12:02;100589.63;;;-0.99;77.23
47761;BME280;33524;55.434;38.520;2024-03-22T05:14:29;100569.78;;;-0.96;76.90
47761;BME280;33524;55.434;38.520;2024-03-22T05:16:56;100556.69;;;-0.88;76.36
47761;BME280;33524;55.434;38.520;2024-03-22T05:19:23;100590.44;;;-0.58;75.78
47761;BME280;33524;55.434;38.520;2024-03-22T05:21:50;100595.31;;;-0.46;75.62
47761;BME280;33524;55.434;38.520;2024-03-22T05:24:18;100594.09;;;-0.31;75.05
47761;BME280;33524;55.434;38.520;2024-03-22T05:26:45;100593.78;;;-0.17;74.74
47761;BME280;33524;55.434;38.520;2024-03-22T05:29:12;100602.84;;;-0.01;74.21
47761;BME280;33524;55.434;38.520;2024-03-22T05:31:46;100598.12;;;0.15;73.83
47761;BME280;33524;55.434;38.520;2024-03-22T05:34:14;100602.87;;;0.30;73.70
47761;BME280;33524;55.434;38.520;2024-03-22T05:36:42;100593.84;;;0.45;73.32
47761;BME280;33524;55.434;38.520;2024-03-22T05:39:09;100595.22;;;0.58;72.98
47761;BME280;33524;55.434;38.520;2024-03-22T05:41:43;100598.97;;;0.78;72.71
47761;BME280;33524;55.434;38.520;2024-03-22T05:44:10;100592.19;;;0.74;72.97
47761;BME280;33524;55.434;38.520;2024-03-22T05:46:36;100594.69;;;1.07;72.28
47761;BME280;33524;55.434;38.520;2024-03-22T05:49:03;100596.28;;;1.11;71.86
47761;BME280;33524;55.434;38.520;2024-03-22T05:51:30;100591.91;;;1.13;71.81
47761;BME280;33524;55.434;38.520;2024-03-22T05:53:57;100574.84;;;1.34;71.62
47761;BME280;33524;55.434;38.520;2024-03-22T05:56:24;100589.59;;;1.60;70.54
47761;BME280;33524;55.434;38.520;2024-03-22T05:58:51;100581.66;;;1.65;70.26
47761;BME280;33524;55.434;38.520;2024-03-22T06:01:18;100579.28;;;1.84;70.09
47761;BME280;33524;55.434;38.520;2024-03-22T06:03:45;100588.84;;;2.08;69.25
47761;BME280;33524;55.434;38.520;2024-03-22T06:06:11;100579.25;;;2.35;68.65
47761;BME280;33524;55.434;38.520;2024-03-22T06:08:38;100576.72;;;2.34;68.30
47761;BME280;33524;55.434;38.520;2024-03-22T06:11:10;100584.19;;;2.67;67.59
47761;BME280;33524;55.434;38.520;2024-03-22T06:13:37;100577.28;;;2.89;67.11
47761;BME280;33524;55.434;38.520;2024-03-22T06:16:05;100574.84;;;3.08;66.15
47761;BME280;33524;55.434;38.520;2024-03-22T06:18:32;100569.50;;;2.89;66.79
47761;BME280;33524;55.434;38.520;2024-03-22T06:20:59;100580.41;;;3.43;65.54
47761;BME280;33524;55.434;38.520;2024-03-22T06:23:26;100562.63;;;3.32;66.17
47761;BME280;33524;55.434;38.520;2024-03-22T06:25:56;100563.31;;;2.46;69.32
47761;BME280;33524;55.434;38.520;2024-03-22T06:28:23;100563.13;;;3.84;65.21
47761;BME280;33524;55.434;38.520;2024-03-22T06:30:50;100565.00;;;3.81;64.02
47761;BME280;33524;55.434;38.520;2024-03-22T06:33:17;100561.25;;;3.46;66.28
47761;BME280;33524;55.434;38.520;2024-03-22T06:35:44;100558.69;;;4.07;64.00
47761;BME280;33524;55.434;38.520;2024-03-22T06:38:10;100566.56;;;2.98;68.01
47761;BME280;33524;55.434;38.520;2024-03-22T06:40:38;100556.75;;;2.59;65.21
47761;BME280;33524;55.434;38.520;2024-03-22T06:43:04;100551.47;;;3.08;64.06
47761;BME280;33524;55.434;38.520;2024-03-22T06:45:31;100553.91;;;4.37;65.53
47761;BME280;33524;55.434;38.520;2024-03-22T06:47:58;100554.59;;;3.38;61.07
47761;BME280;33524;55.434;38.520;2024-03-22T06:50:25;100551.12;;;4.80;64.54
47761;BME280;33524;55.434;38.520;2024-03-22T06:52:55;100544.50;;;4.73;57.77
47761;BME280;33524;55.434;38.520;2024-03-22T06:55:22;100545.78;;;5.38;61.99
47761;BME280;33524;55.434;38.520;2024-03-22T06:57:50;100539.44;;;4.70;57.43
47761;BME280;33524;55.434;38.520;2024-03-22T07:00:17;100539.50;;;4.87;58.66
47761;BME280;33524;55.434;38.520;2024-03-22T07:02:45;100538.37;;;4.93;54.53
47761;BME280;33524;55.434;38.520;2024-03-22T07:05:12;100541.38;;;3.86;56.59
47761;BME280;33524;55.434;38.520;2024-03-22T07:07:39;100539.56;;;5.04;58.66
47761;BME280;33524;55.434;38.520;2024-03-22T07:10:06;100543.56;;;5.48;61.79
47761;BME280;33524;55.434;38.520;2024-03-22T07:12:33;100547.03;;;4.93;53.96
47761;BME280;33524;55.434;38.520;2024-03-22T07:15:01;100544.91;;;5.01;59.17
47761;BME280;33524;55.434;38.520;2024-03-22T07:17:32;100539.50;;;5.42;59.75
47761;BME280;33524;55.434;38.520;2024-03-22T07:19:59;100538.66;;;5.42;56.93
47761;BME280;33524;55.434;38.520;2024-03-22T07:22:26;100540.00;;;4.95;53.39
47761;BME280;33524;55.434;38.520;2024-03-22T07:24:53;100533.06;;;5.67;53.44
47761;BME280;33524;55.434;38.520;2024-03-22T07:27:21;100534.34;;;7.09;59.24
47761;BME280;33524;55.434;38.520;2024-03-22T07:29:48;100534.38;;;5.76;51.46
47761;BME280;33524;55.434;38.520;2024-03-22T07:32:15;100531.81;;;6.92;54.15
47761;BME280;33524;55.434;38.520;2024-03-22T07:34:46;100527.16;;;6.49;57.47
47761;BME280;33524;55.434;38.520;2024-03-22T07:37:13;100528.25;;;7.99;54.86
47761;BME280;33524;55.434;38.520;2024-03-22T07:39:40;100523.19;;;6.74;53.90
47761;BME280;33524;55.434;38.520;2024-03-22T07:42:07;100528.31;;;7.39;54.80
47761;BME280;33524;55.434;38.520;2024-03-22T07:44:33;100519.25;;;8.48;55.29
47761;BME280;33524;55.434;38.520;2024-03-22T07:47:00;100527.97;;;7.29;45.17
47761;BME280;33524;55.434;38.520;2024-03-22T07:49:27;100520.41;;;7.08;55.98
47761;BME280;33524;55.434;38.520;2024-03-22T07:51:54;100516.91;;;6.29;47.40
47761;BME280;33524;55.434;38.520;2024-03-22T07:54:21;100505.03;;;6.39;49.46
47761;BME280;33524;55.434;38.520;2024-03-22T07:56:48;100506.13;;;8.34;52.14
47761;BME280;33524;55.434;38.520;2024-03-22T07:59:15;100511.03;;;7.20;48.02
47761;BME280;33524;55.434;38.520;2024-03-22T08:01:42;100496.00;;;7.24;48.77
47761;BME280;33524;55.434;38.520;2024-03-22T08:04:09;100498.31;;;6.98;53.10
47761;BME280;33524;55.434;38.520;2024-03-22T08:06:36;100495.88;;;7.41;48.77
47761;BME280;33524;55.434;38.520;2024-03-22T08:09:03;100497.31;;;8.63;50.47
47761;BME280;33524;55.434;38.520;2024-03-22T08:11:30;100487.81;;;9.17;54.25
47761;BME280;33524;55.434;38.520;2024-03-22T08:13:57;100487.72;;;8.91;53.57
47761;BME280;33524;55.434;38.520;2024-03-22T08:16:30;100488.31;;;9.49;48.23
47761;BME280;33524;55.434;38.520;2024-03-22T08:18:57;100484.47;;;9.93;51.16
47761;BME280;33524;55.434;38.520;2024-03-22T08:21:24;100481.75;;;9.82;50.62
47761;BME280;33524;55.434;38.520;2024-03-22T08:23:52;100475.31;;;10.50;50.51
47761;BME280;33524;55.434;38.520;2024-03-22T08:26:19;100467.31;;;10.00;47.23
47761;BME280;33524;55.434;38.520;2024-03-22T08:28:46;100466.53;;;10.62;47.23
47761;BME280;33524;55.434;38.520;2024-03-22T08:31:14;100463.69;;;11.14;49.65
47761;BME280;33524;55.434;38.520;2024-03-22T08:33:41;100465.03;;;11.43;47.73
47761;BME280;33524;55.434;38.520;2024-03-22T08:36:08;100458.13;;;10.94;49.05
47761;BME280;33524;55.434;38.520;2024-03-22T08:38:35;100452.94;;;11.17;49.51
47761;BME280;33524;55.434;38.520;2024-03-22T08:41:03;100451.84;;;10.47;41.33
47761;BME280;33524;55.434;38.520;2024-03-22T08:43:30;100425.00;;;9.41;42.08
47761;BME280;33524;55.434;38.520;2024-03-22T08:45:57;100447.16;;;9.49;43.31
47761;BME280;33524;55.434;38.520;2024-03-22T08:48:25;100445.81;;;9.95;44.49
47761;BME280;33524;55.434;38.520;2024-03-22T08:50:51;100438.44;;;11.46;49.86
47761;BME280;33524;55.434;38.520;2024-03-22T08:53:18;100421.53;;;10.78;40.77
47761;BME280;33524;55.434;38.520;2024-03-22T08:55:47;100426.97;;;10.14;45.28
47761;BME280;33524;55.434;38.520;2024-03-22T08:58:15;100431.91;;;9.55;43.40
47761;BME280;33524;55.434;38.520;2024-03-22T09:00:42;100434.91;;;10.51;41.87
47761;BME280;33524;55.434;38.520;2024-03-22T09:03:09;100421.53;;;9.79;40.42
47761;BME280;33524;55.434;38.520;2024-03-22T09:05:36;100423.72;;;10.60;46.43
47761;BME280;33524;55.434;38.520;2024-03-22T09:08:03;100418.34;;;11.45;49.53
47761;BME280;33524;55.434;38.520;2024-03-22T09:10:31;100420.66;;;11.73;44.60
47761;BME280;33524;55.434;38.520;2024-03-22T09:12:59;100415.59;;;11.69;47.90
47761;BME280;33524;55.434;38.520;2024-03-22T09:15:26;100422.44;;;10.42;39.61
47761;BME280;33524;55.434;38.520;2024-03-22T09:17:53;100403.44;;;10.00;38.25
47761;BME280;33524;55.434;38.520;2024-03-22T09:20:20;100402.13;;;10.68;39.91
47761;BME280;33524;55.434;38.520;2024-03-22T09:22:47;100399.75;;;10.15;45.63
47761;BME280;33524;55.434;38.520;2024-03-22T09:25:14;100394.31;;;11.73;44.38
47761;BME280;33524;55.434;38.520;2024-03-22T09:27:42;100382.63;;;11.30;37.99
47761;BME280;33524;55.434;38.520;2024-03-22T09:30:09;100388.47;;;11.91;47.61
47761;BME280;33524;55.434;38.520;2024-03-22T09:32:36;100384.25;;;12.34;46.77
47761;BME280;33524;55.434;38.520;2024-03-22T09:35:04;100381.91;;;11.28;43.18
47761;BME280;33524;55.434;38.520;2024-03-22T09:37:31;100389.44;;;11.21;38.12
47761;BME280;33524;55.434;38.520;2024-03-22T09:39:58;100375.84;;;11.50;40.43
47761;BME280;33524;55.434;38.520;2024-03-22T09:42:26;100372.66;;;11.80;43.41
47761;BME280;33524;55.434;38.520;2024-03-22T09:44:56;100362.56;;;12.30;42.12
47761;BME280;33524;55.434;38.520;2024-03-22T09:47:24;100370.25;;;12.55;46.57
47761;BME280;33524;55.434;38.520;2024-03-22T09:49:52;100368.50;;;12.44;37.76
47761;BME280;33524;55.434;38.520;2024-03-22T09:52:20;100373.22;;;12.72;42.81
47761;BME280;33524;55.434;38.520;2024-03-22T09:54:47;100373.06;;;12.42;43.22
47761;BME280;33524;55.434;38.520;2024-03-22T09:57:18;100361.66;;;12.85;45.04
47761;BME280;33524;55.434;38.520;2024-03-22T09:59:45;100369.28;;;13.20;44.77
47761;BME280;33524;55.434;38.520;2024-03-22T10:02:13;100369.78;;;12.93;39.63
47761;BME280;33524;55.434;38.520;2024-03-22T10:04:41;100367.59;;;12.11;35.86
47761;BME280;33524;55.434;38.520;2024-03-22T10:07:08;100371.59;;;13.13;41.07
47761;BME280;33524;55.434;38.520;2024-03-22T10:09:37;100362.97;;;12.90;44.07
47761;BME280;33524;55.434;38.520;2024-03-22T10:12:05;100366.78;;;12.54;41.30
47761;BME280;33524;55.434;38.520;2024-03-22T10:14:32;100354.00;;;12.49;38.31
47761;BME280;33524;55.434;38.520;2024-03-22T10:17:00;100354.88;;;12.71;35.72
47761;BME280;33524;55.434;38.520;2024-03-22T10:19:27;100364.00;;;12.67;36.12
47761;BME280;33524;55.434;38.520;2024-03-22T10:22:03;100350.03;;;12.44;42.09
47761;BME280;33524;55.434;38.520;2024-03-22T10:24:31;100352.31;;;13.34;40.37
47761;BME280;33524;55.434;38.520;2024-03-22T10:27:01;100346.84;;;13.15;40.39
47761;BME280;33524;55.434;38.520;2024-03-22T10:29:28;100345.81;;;11.98;40.79
47761;BME280;33524;55.434;38.520;2024-03-22T10:31:55;100346.69;;;11.06;36.58
47761;BME280;33524;55.434;38.520;2024-03-22T10:34:24;100343.06;;;11.99;39.78
47761;BME280;33524;55.434;38.520;2024-03-22T10:36:51;100345.91;;;12.62;35.58
47761;BME280;33524;55.434;38.520;2024-03-22T10:39:19;100339.97;;;12.49;36.18
47761;BME280;33524;55.434;38.520;2024-03-22T10:41:46;100336.41;;;12.27;34.37
47761;BME280;33524;55.434;38.520;2024-03-22T10:44:16;100330.81;;;11.76;34.66
47761;BME280;33524;55.434;38.520;2024-03-22T10:46:48;100328.72;;;12.36;38.77
47761;BME280;33524;55.434;38.520;2024-03-22T10:49:17;100304.97;;;11.47;34.99
47761;BME280;33524;55.434;38.520;2024-03-22T10:51:58;100322.53;;;12.58;39.85
47761;BME280;33524;55.434;38.520;2024-03-22T10:54:32;100314.59;;;12.25;34.94
47761;BME280;33524;55.434;38.520;2024-03-22T10:57:01;100313.00;;;11.90;38.96
47761;BME280;33524;55.434;38.520;2024-03-22T10:59:33;100303.06;;;11.38;35.94
47761;BME280;33524;55.434;38.520;2024-03-22T11:02:06;100305.03;;;11.11;36.30
47761;BME280;33524;55.434;38.520;2024-03-22T11:04:33;100309.19;;;11.72;39.16
47761;BME280;33524;55.434;38.520;2024-03-22T11:07:01;100301.84;;;12.42;36.95
47761;BME280;33524;55.434;38.520;2024-03-22T11:09:29;100301.84;;;12.42;36.01
47761;BME280;33524;55.434;38.520;2024-03-22T11:11:57;100299.66;;;12.79;34.96
47761;BME280;33524;55.434;38.520;2024-03-22T11:14:27;100299.69;;;13.00;38.10
47761;BME280;33524;55.434;38.520;2024-03-22T11:16:55;100292.44;;;13.44;39.24
47761;BME280;33524;55.434;38.520;2024-03-22T11:19:22;100293.28;;;12.17;35.64
47761;BME280;33524;55.434;38.520;2024-03-22T11:21:51;100281.31;;;12.78;36.24
47761;BME280;33524;55.434;38.520;2024-03-22T11:24:18;100291.31;;;12.42;35.50
47761;BME280;33524;55.434;38.520;2024-03-22T11:26:45;100285.97;;;13.68;43.39
47761;BME280;33524;55.434;38.520;2024-03-22T11:29:14;100275.66;;;13.03;39.93
47761;BME280;33524;55.434;38.520;2024-03-22T11:31:42;100278.38;;;11.84;37.43
47761;BME280;33524;55.434;38.520;2024-03-22T11:34:09;100266.63;;;12.85;36.60
47761;BME280;33524;55.434;38.520;2024-03-22T11:36:38;100256.38;;;12.17;39.47
47761;BME280;33524;55.434;38.520;2024-03-22T11:39:05;100259.56;;;13.06;36.17
47761;BME280;33524;55.434;38.520;2024-03-22T11:41:32;100254.13;;;12.45;35.12
47761;BME280;33524;55.434;38.520;2024-03-22T11:44:00;100254.19;;;11.79;36.22
47761;BME280;33524;55.434;38.520;2024-03-22T11:46:28;100254.56;;;12.29;35.84
47761;BME280;33524;55.434;38.520;2024-03-22T11:48:56;100253.16;;;13.30;38.26
47761;BME280;33524;55.434;38.520;2024-03-22T11:51:24;100250.19;;;12.39;39.73
47761;BME280;33524;55.434;38.520;2024-03-22T11:53:52;100245.97;;;11.27;36.80
47761;BME280;33524;55.434;38.520;2024-03-22T11:56:20;100242.59;;;11.36;41.67
47761;BME280;33524;55.434;38.520;2024-03-22T11:58:48;100226.56;;;10.94;39.83
47761;BME280;33524;55.434;38.520;2024-03-22T12:01:16;100225.38;;;10.98;38.39
47761;BME280;33524;55.434;38.520;2024-03-22T12:03:44;100229.41;;;10.20;40.66
47761;BME280;33524;55.434;38.520;2024-03-22T12:06:11;100216.03;;;9.51;42.46
47761;BME280;33524;55.434;38.520;2024-03-22T12:08:39;100215.50;;;10.07;42.79
47761;BME280;33524;55.434;38.520;2024-03-22T12:11:08;100214.34;;;10.11;40.77
47761;BME280;33524;55.434;38.520;2024-03-22T12:13:39;100203.72;;;10.83;40.45
47761;BME280;33524;55.434;38.520;2024-03-22T12:16:06;100198.22;;;10.40;43.51
47761;BME280;33524;55.434;38.520;2024-03-22T12:18:36;100189.22;;;10.31;43.27
47761;BME280;33524;55.434;38.520;2024-03-22T12:21:03;100188.59;;;10.63;40.46
47761;BME280;33524;55.434;38.520;2024-03-22T12:23:30;100186.53;;;10.44;39.27
47761;BME280;33524;55.434;38.520;2024-03-22T12:25:58;100179.41;;;10.80;38.66
47761;BME280;33524;55.434;38.520;2024-03-22T12:28:24;100174.84;;;10.70;38.83
47761;BME280;33524;55.434;38.520;2024-03-22T12:30:52;100168.91;;;11.14;38.93
47761;BME280;33524;55.434;38.520;2024-03-22T12:33:19;100168.91;;;11.02;38.89
47761;BME280;33524;55.434;38.520;2024-03-22T12:35:46;100164.94;;;11.19;38.97
47761;BME280;33524;55.434;38.520;2024-03-22T12:38:15;100156.44;;;11.49;38.33
47761;BME280;33524;55.434;38.520;2024-03-22T12:40:42;100152.37;;;11.78;37.68
47761;BME280;33524;55.434;38.520;2024-03-22T12:43:09;100148.59;;;12.03;37.24